createdAt,value
2023-04-15T00:02:18.396Z,3.83
2023-04-15T00:04:47.985Z,4.20
2023-04-15T00:07:16.404Z,4.45
2023-04-15T00:09:44.666Z,3.75
2023-04-15T00:12:12.997Z,3.88
2023-04-15T00:14:40.627Z,3.80
2023-04-15T00:17:08.239Z,4.30
2023-04-15T00:19:35.857Z,3.45
2023-04-15T00:22:04.838Z,3.80
2023-04-15T00:24:34.731Z,3.85
2023-04-15T00:27:02.515Z,3.92
2023-04-15T00:29:30.502Z,3.70
2023-04-15T00:31:58.183Z,3.88
2023-04-15T00:34:25.837Z,4.30
2023-04-15T00:36:53.697Z,3.95
2023-04-15T00:39:23.782Z,3.67
2023-04-15T00:41:51.466Z,3.92
2023-04-15T00:44:20.083Z,4.40
2023-04-15T00:46:52.330Z,3.80
2023-04-15T00:49:20.146Z,3.97
2023-04-15T00:51:47.866Z,3.70
2023-04-15T00:54:16.230Z,4.07
2023-04-15T00:56:45.843Z,4.20
2023-04-15T00:59:14.144Z,3.72
2023-04-15T01:01:42.645Z,4.22
2023-04-15T01:04:11.525Z,3.90
2023-04-15T01:06:39.394Z,4.10
2023-04-15T01:09:07.054Z,4.93
2023-04-15T01:11:35.251Z,4.63
2023-04-15T01:14:04.826Z,5.10
2023-04-15T01:16:32.811Z,4.45
2023-04-15T01:19:01.281Z,4.63
2023-04-15T01:21:29.969Z,4.50
2023-04-15T01:23:58.690Z,4.28
2023-04-15T01:26:28.314Z,4.82
2023-04-15T01:28:56.340Z,4.88
2023-04-15T01:31:25.001Z,4.72
2023-04-15T01:33:53.047Z,4.95
2023-04-15T01:36:21.183Z,6.45
2023-04-15T01:38:49.093Z,5.47
2023-04-15T01:41:17.273Z,6.10
2023-04-15T01:43:47.002Z,5.45
2023-04-15T01:46:14.739Z,5.28
2023-04-15T01:48:42.564Z,5.03
2023-04-15T01:51:10.305Z,5.45
2023-04-15T01:53:37.961Z,5.15
2023-04-15T01:56:07.181Z,5.70
2023-04-15T01:58:34.894Z,5.65
2023-04-15T02:01:04.679Z,5.53
2023-04-15T02:03:33.019Z,6.03
2023-04-15T02:06:00.774Z,5.85
2023-04-15T02:08:29.751Z,5.07
2023-04-15T02:10:57.466Z,5.60
2023-04-15T02:13:26.259Z,5.57
2023-04-15T02:15:53.919Z,6.57
2023-04-15T02:18:23.010Z,6.72
2023-04-15T02:20:52.858Z,5.85
2023-04-15T02:23:20.846Z,5.75
2023-04-15T02:25:53.251Z,5.97
2023-04-15T02:28:22.013Z,5.93
2023-04-15T02:30:50.911Z,6.28
2023-04-15T02:33:18.640Z,5.82
2023-04-15T02:35:47.657Z,5.72
2023-04-15T02:38:17.846Z,6.38
2023-04-15T02:40:45.533Z,5.50
2023-04-15T02:43:13.690Z,6.43
2023-04-15T02:45:43.445Z,6.05
2023-04-15T02:48:11.568Z,5.88
2023-04-15T02:50:40.817Z,6.15
2023-04-15T02:53:11.713Z,6.13
2023-04-15T02:55:39.658Z,6.32
2023-04-15T02:58:08.434Z,6.88
2023-04-15T03:00:36.288Z,6.75
2023-04-15T03:03:06.634Z,6.53
2023-04-15T03:05:34.617Z,7.50
2023-04-15T03:08:04.864Z,6.85
2023-04-15T03:10:33.934Z,7.32
2023-04-15T03:13:02.844Z,6.75
2023-04-15T03:15:30.771Z,7.30
2023-04-15T03:17:58.572Z,7.85
2023-04-15T03:20:26.458Z,6.90
2023-04-15T03:22:54.422Z,7.88
2023-04-15T03:25:24.331Z,7.00
2023-04-15T03:27:53.586Z,7.05
2023-04-15T03:30:21.502Z,6.95
2023-04-15T03:32:49.186Z,6.50
2023-04-15T03:35:17.136Z,6.85
2023-04-15T03:37:44.864Z,7.97
2023-04-15T03:40:13.434Z,7.30
2023-04-15T03:42:41.510Z,7.55
2023-04-15T03:45:11.682Z,7.45
2023-04-15T03:47:39.573Z,8.00
2023-04-15T03:50:08.352Z,7.90
2023-04-15T03:52:36.181Z,7.75
2023-04-15T03:55:03.854Z,8.75
2023-04-15T03:57:32.010Z,8.50
2023-04-15T03:59:59.696Z,9.52
2023-04-15T04:02:28.876Z,8.73
2023-04-15T04:04:56.707Z,8.50
2023-04-15T04:07:25.140Z,9.73
2023-04-15T04:09:53.050Z,9.32
2023-04-15T04:12:20.931Z,10.40
2023-04-15T04:14:48.536Z,9.85
2023-04-15T04:17:16.272Z,10.13
2023-04-15T04:19:45.403Z,10.05
2023-04-15T04:22:13.180Z,12.38
2023-04-15T04:24:40.778Z,11.57
2023-04-15T04:27:08.413Z,12.85
2023-04-15T04:29:36.076Z,12.07
2023-04-15T04:32:03.803Z,11.15
2023-04-15T04:34:32.515Z,11.90
2023-04-15T04:37:01.531Z,11.80
2023-04-15T04:39:29.200Z,12.15
2023-04-15T04:41:57.401Z,12.90
2023-04-15T04:44:25.269Z,13.18
2023-04-15T04:46:53.006Z,13.50
2023-04-15T04:49:20.872Z,13.63
2023-04-15T04:51:48.903Z,14.57
2023-04-15T04:54:18.061Z,13.10
2023-04-15T04:56:45.721Z,14.85
2023-04-15T04:59:13.991Z,14.23
2023-04-15T05:01:42.040Z,14.10
2023-04-15T05:04:10.008Z,14.32
2023-04-15T05:06:37.860Z,14.70
2023-04-15T05:09:09.234Z,14.63
2023-04-15T05:11:38.294Z,15.30
2023-04-15T05:14:06.207Z,14.48
2023-04-15T05:16:33.940Z,15.02
2023-04-15T05:19:02.177Z,15.98
2023-04-15T05:21:30.172Z,16.40
2023-04-15T05:23:57.869Z,15.50
2023-04-15T05:26:25.657Z,17.00
2023-04-15T05:28:55.055Z,17.77
2023-04-15T05:31:22.992Z,16.15
2023-04-15T05:33:50.857Z,17.38
2023-04-15T05:36:18.707Z,17.92
2023-04-15T05:38:46.696Z,17.77
2023-04-15T05:41:17.095Z,18.13
2023-04-15T05:43:46.464Z,17.55
2023-04-15T05:46:15.910Z,18.55
2023-04-15T05:48:43.702Z,18.83
2023-04-15T05:51:11.770Z,18.60
2023-04-15T05:53:41.178Z,18.70
2023-04-15T05:56:09.363Z,18.55
2023-04-15T05:58:37.084Z,18.67
2023-04-15T06:01:05.692Z,18.75
2023-04-15T06:03:35.565Z,18.33
2023-04-15T06:06:03.731Z,18.75
2023-04-15T06:08:31.445Z,19.10
2023-04-15T06:10:59.812Z,19.45
2023-04-15T06:13:27.598Z,19.40
2023-04-15T06:15:55.386Z,21.88
2023-04-15T06:18:23.234Z,19.50
2023-04-15T06:20:52.728Z,20.67
2023-04-15T06:23:21.118Z,18.90
2023-04-15T06:25:49.098Z,18.73
2023-04-15T06:28:16.869Z,19.77
2023-04-15T06:30:44.597Z,19.02
2023-04-15T06:33:12.507Z,20.27
2023-04-15T06:35:40.523Z,19.63
2023-04-15T06:38:09.509Z,21.05
2023-04-15T06:40:37.204Z,20.38
2023-04-15T06:43:05.011Z,19.42
2023-04-15T06:45:32.664Z,21.00
2023-04-15T06:48:00.668Z,21.80
2023-04-15T06:50:28.399Z,22.80
2023-04-15T06:52:57.204Z,22.83
2023-04-15T06:55:26.207Z,22.67
2023-04-15T06:57:54.019Z,24.63
2023-04-15T07:00:22.309Z,24.35
2023-04-15T07:02:50.192Z,23.98
2023-04-15T07:05:19.019Z,24.75
2023-04-15T07:07:46.754Z,25.27
2023-04-15T07:10:14.889Z,26.60
2023-04-15T07:12:43.957Z,25.90
2023-04-15T07:15:12.387Z,25.92
2023-04-15T07:17:40.044Z,26.05
2023-04-15T07:20:09.127Z,25.88
2023-04-15T07:22:36.748Z,27.80
2023-04-15T07:25:04.865Z,26.50
2023-04-15T07:27:32.549Z,28.27
2023-04-15T07:30:01.665Z,27.17
2023-04-15T07:32:29.335Z,27.25
2023-04-15T07:34:56.994Z,27.60
2023-04-15T07:37:24.733Z,28.52
2023-04-15T07:39:52.886Z,26.90
2023-04-15T07:42:20.656Z,26.45
2023-04-15T07:44:48.377Z,27.95
2023-04-15T07:47:17.565Z,24.67
2023-04-15T07:49:48.167Z,26.48
2023-04-15T07:52:15.925Z,26.33
2023-04-15T07:54:43.631Z,26.08
2023-04-15T07:57:19.506Z,27.10
2023-04-15T07:59:47.168Z,25.42
2023-04-15T08:02:15.460Z,26.30
2023-04-15T08:04:43.205Z,27.40
2023-04-15T08:07:11.068Z,27.40
2023-04-15T08:09:38.990Z,26.85
2023-04-15T08:12:12.439Z,30.60
2023-04-15T08:14:44.749Z,26.40
2023-04-15T08:17:12.375Z,25.88
2023-04-15T08:19:43.391Z,26.70
2023-04-15T08:22:17.720Z,29.55
2023-04-15T08:24:46.554Z,26.98
2023-04-15T08:27:14.094Z,26.35
2023-04-15T08:29:43.038Z,25.55
2023-04-15T08:32:10.585Z,25.08
2023-04-15T08:34:38.325Z,26.38
2023-04-15T08:37:06.365Z,26.10
2023-04-15T08:39:33.980Z,25.80
2023-04-15T08:42:03.466Z,26.80
2023-04-15T08:44:34.509Z,26.27
2023-04-15T08:47:05.903Z,27.45
2023-04-15T08:49:33.710Z,27.42
2023-04-15T08:52:01.753Z,25.92
2023-04-15T08:54:29.789Z,26.77
2023-04-15T08:56:59.525Z,26.20
2023-04-15T08:59:27.321Z,27.10
2023-04-15T09:01:56.637Z,25.38
2023-04-15T09:04:25.918Z,25.73
2023-04-15T09:06:53.453Z,27.17
2023-04-15T09:09:21.015Z,24.58
2023-04-15T09:11:50.012Z,24.17
2023-04-15T09:14:18.259Z,26.63
2023-04-15T09:16:58.858Z,26.20
2023-04-15T09:19:28.315Z,24.48
2023-04-15T09:21:59.127Z,25.15
2023-04-15T09:24:37.367Z,26.48
2023-04-15T09:27:05.468Z,27.33
2023-04-15T09:29:33.212Z,25.38
2023-04-15T09:32:10.966Z,24.35
2023-04-15T09:34:39.974Z,24.67
2023-04-15T09:37:08.041Z,26.10
2023-04-15T09:39:49.824Z,26.25
2023-04-15T09:42:19.375Z,25.65
2023-04-15T09:44:46.883Z,24.63
2023-04-15T09:47:29.235Z,26.10
2023-04-15T09:49:58.781Z,24.67
2023-04-15T09:52:27.286Z,22.88
2023-04-15T09:54:56.457Z,24.60
2023-04-15T09:57:24.640Z,23.73
2023-04-15T09:59:52.516Z,22.60
2023-04-15T10:02:21.816Z,24.80
2023-04-15T10:04:50.227Z,23.85
2023-04-15T10:07:22.162Z,23.52
2023-04-15T10:09:50.350Z,22.77
2023-04-15T10:12:18.649Z,23.02
2023-04-15T10:14:53.598Z,23.05
2023-04-15T10:17:24.044Z,23.80
2023-04-15T10:19:54.989Z,22.77
2023-04-15T10:22:24.645Z,25.58
2023-04-15T10:24:53.251Z,22.73
2023-04-15T10:27:22.042Z,23.98
2023-04-15T10:29:50.585Z,22.65
2023-04-15T10:32:20.017Z,22.45
2023-04-15T10:34:49.525Z,21.63
2023-04-15T10:37:22.259Z,21.80
2023-04-15T10:39:51.220Z,21.08
2023-04-15T10:42:20.150Z,21.15
2023-04-15T10:44:51.585Z,20.60
2023-04-15T10:47:21.401Z,20.25
2023-04-15T10:49:51.436Z,20.92
2023-04-15T10:52:24.080Z,19.13
2023-04-15T10:55:03.562Z,19.55
2023-04-15T10:57:36.519Z,19.70
2023-04-15T11:00:12.329Z,18.25
2023-04-15T11:02:42.185Z,18.83
2023-04-15T11:05:10.459Z,18.02
2023-04-15T11:07:39.974Z,17.42
2023-04-15T11:10:49.575Z,17.60
2023-04-15T11:13:22.858Z,16.35
2023-04-15T11:15:51.889Z,15.10
2023-04-15T11:18:20.882Z,12.80
2023-04-15T11:20:51.375Z,11.35
2023-04-15T11:23:20.493Z,11.43
2023-04-15T11:25:48.633Z,11.27
2023-04-15T11:28:17.931Z,11.27
2023-04-15T11:30:45.473Z,11.13
2023-04-15T11:33:14.011Z,11.20
2023-04-15T11:35:42.576Z,9.82
2023-04-15T11:38:12.009Z,10.13
2023-04-15T11:40:40.325Z,10.40
2023-04-15T11:43:09.326Z,10.02
2023-04-15T11:45:49.818Z,10.23
2023-04-15T11:48:18.162Z,10.07
2023-04-15T11:50:46.284Z,10.55
2023-04-15T11:53:14.953Z,10.90
2023-04-15T11:55:44.495Z,11.15
2023-04-15T11:58:16.223Z,9.73
2023-04-15T12:00:50.065Z,9.35
2023-04-15T12:03:23.924Z,10.10
2023-04-15T12:06:05.986Z,9.70
2023-04-15T12:08:59.971Z,9.65
2023-04-15T12:11:36.560Z,9.73
2023-04-15T12:14:06.715Z,9.52
2023-04-15T12:16:48.488Z,9.73
2023-04-15T12:19:18.406Z,10.10
2023-04-15T12:21:48.798Z,9.15
2023-04-15T12:24:16.732Z,9.63
2023-04-15T12:26:45.766Z,10.00
2023-04-15T12:29:16.161Z,9.63
2023-04-15T12:31:52.592Z,10.10
2023-04-15T12:34:27.707Z,10.02
2023-04-15T12:36:55.627Z,9.30
2023-04-15T12:39:24.707Z,10.68
2023-04-15T12:41:52.457Z,13.95
2023-04-15T12:44:21.009Z,10.00
2023-04-15T12:46:48.689Z,8.95
2023-04-15T12:49:20.849Z,9.25
2023-04-15T12:51:50.327Z,8.73
2023-04-15T12:54:18.604Z,8.85
2023-04-15T12:56:47.115Z,9.60
2023-04-15T12:59:15.145Z,10.05
2023-04-15T13:01:42.886Z,9.20
2023-04-15T13:04:10.611Z,9.38
2023-04-15T13:06:39.872Z,10.00
2023-04-15T13:09:07.495Z,10.30
2023-04-15T13:11:36.088Z,10.43
2023-04-15T13:14:05.302Z,9.90
2023-04-15T13:16:34.135Z,10.15
2023-04-15T13:19:03.355Z,9.27
2023-04-15T13:21:34.794Z,9.57
2023-04-15T13:24:04.726Z,9.18
2023-04-15T13:26:32.807Z,9.00
2023-04-15T13:29:00.585Z,9.68
2023-04-15T13:31:28.380Z,9.25
2023-04-15T13:33:56.156Z,8.43
2023-04-15T13:36:23.824Z,9.30
2023-04-15T13:38:51.925Z,8.25
2023-04-15T13:41:21.260Z,8.98
2023-04-15T13:43:48.908Z,8.23
2023-04-15T13:46:16.819Z,9.52
2023-04-15T13:48:44.465Z,8.13
2023-04-15T13:51:12.129Z,7.82
2023-04-15T13:53:39.956Z,8.68
2023-04-15T13:56:08.134Z,8.60
2023-04-15T13:58:37.926Z,8.68
2023-04-15T14:01:07.032Z,8.98
2023-04-15T14:03:35.907Z,8.82
2023-04-15T14:06:03.936Z,7.57
2023-04-15T14:08:31.726Z,7.30
2023-04-15T14:10:59.469Z,7.22
2023-04-15T14:13:27.102Z,7.30
2023-04-15T14:15:56.172Z,7.13
2023-04-15T14:18:26.754Z,7.38
2023-04-15T14:20:54.556Z,7.32
2023-04-15T14:23:22.258Z,7.97
2023-04-15T14:25:50.170Z,7.07
2023-04-15T14:28:17.675Z,7.10
2023-04-15T14:30:45.326Z,7.60
2023-04-15T14:33:14.409Z,7.45
2023-04-15T14:35:42.048Z,7.47
2023-04-15T14:38:11.340Z,7.43
2023-04-15T14:40:39.514Z,7.15
2023-04-15T14:43:07.174Z,7.43
2023-04-15T14:45:35.686Z,8.20
2023-04-15T14:48:03.323Z,7.30
2023-04-15T14:50:32.264Z,7.95
2023-04-15T14:53:00.189Z,7.47
2023-04-15T14:55:28.200Z,7.85
2023-04-15T14:57:55.857Z,8.10
2023-04-15T15:00:23.402Z,7.53
2023-04-15T15:02:51.034Z,7.10
2023-04-15T15:05:18.817Z,7.10
2023-04-15T15:07:47.744Z,7.10
2023-04-15T15:10:15.314Z,7.35
2023-04-15T15:12:42.922Z,6.85
2023-04-15T15:15:25.142Z,6.72
2023-04-15T15:17:56.595Z,7.63
2023-04-15T15:20:24.584Z,7.47
2023-04-15T15:22:53.600Z,7.10
2023-04-15T15:25:21.207Z,7.85
2023-04-15T15:27:49.722Z,7.20
2023-04-15T15:30:17.764Z,7.30
2023-04-15T15:32:45.756Z,7.40
2023-04-15T15:35:13.368Z,7.93
2023-04-15T15:37:43.848Z,9.20
2023-04-15T15:40:13.726Z,8.32
2023-04-15T15:42:42.753Z,9.13
2023-04-15T15:45:11.333Z,7.97
2023-04-15T15:47:38.985Z,8.50
2023-04-15T15:50:07.608Z,8.77
2023-04-15T15:52:35.402Z,8.13
2023-04-15T15:55:03.223Z,8.10
2023-04-15T15:57:32.205Z,8.90
2023-04-15T16:00:11.138Z,8.45
2023-04-15T16:03:05.043Z,8.57
2023-04-15T16:05:28.427Z,9.07
2023-04-15T16:07:56.251Z,8.90
2023-04-15T16:10:24.049Z,8.32
2023-04-15T16:12:53.293Z,9.18
2023-04-15T16:15:21.188Z,8.98
2023-04-15T16:17:48.766Z,8.40
2023-04-15T16:20:16.680Z,8.93
2023-04-15T16:22:44.389Z,8.88
2023-04-15T16:25:11.934Z,8.35
2023-04-15T16:27:57.103Z,9.30
2023-04-15T16:30:30.033Z,10.02
2023-04-15T16:32:57.874Z,9.85
2023-04-15T16:35:25.752Z,9.27
2023-04-15T16:37:53.437Z,10.07
2023-04-15T16:40:21.085Z,10.70
2023-04-15T16:42:48.680Z,11.13
2023-04-15T16:45:16.400Z,10.55
2023-04-15T16:47:45.371Z,10.43
2023-04-15T16:50:13.012Z,10.73
2023-04-15T16:52:40.697Z,11.00
2023-04-15T16:55:08.705Z,10.77
2023-04-15T16:58:01.220Z,10.82
2023-04-15T17:00:23.889Z,11.57
2023-04-15T17:02:53.061Z,11.48
2023-04-15T17:05:20.745Z,12.13
2023-04-15T17:07:48.620Z,11.52
2023-04-15T17:10:16.373Z,11.65
2023-04-15T17:12:44.002Z,12.38
2023-04-15T17:15:11.594Z,12.23
2023-04-15T17:17:39.324Z,12.40
2023-04-15T17:20:08.895Z,12.75
2023-04-15T17:22:36.520Z,12.63
2023-04-15T17:25:04.586Z,13.60
2023-04-15T17:27:32.447Z,13.38
2023-04-15T17:30:00.049Z,13.35
2023-04-15T17:32:31.636Z,12.77
2023-04-15T17:34:59.550Z,12.52
2023-04-15T17:37:28.434Z,15.48
2023-04-15T17:39:55.950Z,12.75
2023-04-15T17:42:23.532Z,14.68
2023-04-15T17:44:51.168Z,13.13
2023-04-15T17:47:18.773Z,14.65
2023-04-15T17:49:47.212Z,13.25
2023-04-15T17:52:14.920Z,14.13
2023-04-15T17:54:43.846Z,14.02
2023-04-15T17:57:11.438Z,13.80
2023-04-15T17:59:43.738Z,14.30
2023-04-15T18:02:11.951Z,14.68
2023-04-15T18:04:40.194Z,14.75
2023-04-15T18:07:08.035Z,13.50
2023-04-15T18:09:36.147Z,14.60
2023-04-15T18:12:07.516Z,16.13
2023-04-15T18:14:35.326Z,13.75
2023-04-15T18:17:03.327Z,14.77
2023-04-15T18:19:31.662Z,14.02
2023-04-15T18:21:59.855Z,14.45
2023-04-15T18:24:27.566Z,13.93
2023-04-15T18:26:56.331Z,15.13
2023-04-15T18:29:25.379Z,14.35
2023-04-15T18:31:53.133Z,14.43
2023-04-15T18:34:20.816Z,15.18
2023-04-15T18:36:48.787Z,14.77
2023-04-15T18:39:16.844Z,15.00
2023-04-15T18:41:44.599Z,15.80
2023-04-15T18:44:12.172Z,14.57
2023-04-15T18:46:41.258Z,14.85
2023-04-15T18:49:08.944Z,15.73
2023-04-15T18:51:36.832Z,15.63
2023-04-15T18:54:04.648Z,14.95
2023-04-15T18:56:32.737Z,14.80
2023-04-15T18:59:27.105Z,15.27
2023-04-15T19:01:49.651Z,15.63
2023-04-15T19:04:17.268Z,15.75
2023-04-15T19:06:44.980Z,15.50
2023-04-15T19:09:12.656Z,14.30
2023-04-15T19:11:40.401Z,14.10
2023-04-15T19:14:08.268Z,15.10
2023-04-15T19:16:36.255Z,15.32
2023-04-15T19:19:06.604Z,15.10
2023-04-15T19:21:34.850Z,14.52
2023-04-15T19:24:02.858Z,14.40
2023-04-15T19:26:30.921Z,13.90
2023-04-15T19:28:59.071Z,14.05
2023-04-15T19:31:26.865Z,14.52
2023-04-15T19:33:54.934Z,14.90
2023-04-15T19:36:24.066Z,14.75
2023-04-15T19:38:51.732Z,13.68
2023-04-15T19:41:19.357Z,13.50
2023-04-15T19:43:47.037Z,14.90
2023-04-15T19:46:14.975Z,14.80
2023-04-15T19:48:42.777Z,13.52
2023-04-15T19:51:10.753Z,14.77
2023-04-15T19:53:40.661Z,12.98
2023-04-15T19:56:09.006Z,15.15
2023-04-15T19:58:36.709Z,13.27
2023-04-15T20:01:04.458Z,13.70
2023-04-15T20:03:32.248Z,15.07
2023-04-15T20:06:00.125Z,15.48
2023-04-15T20:08:27.957Z,13.70
2023-04-15T20:10:57.951Z,13.63
2023-04-15T20:13:25.702Z,14.07
2023-04-15T20:15:53.314Z,13.80
2023-04-15T20:18:20.940Z,14.13
2023-04-15T20:20:48.540Z,14.23
2023-04-15T20:23:16.109Z,14.27
2023-04-15T20:25:43.675Z,14.10
2023-04-15T20:28:12.893Z,14.15
2023-04-15T20:30:40.871Z,13.45
2023-04-15T20:33:08.934Z,14.02
2023-04-15T20:35:36.572Z,13.25
2023-04-15T20:38:04.502Z,13.60
2023-04-15T20:40:33.548Z,14.48
2023-04-15T20:43:01.159Z,14.25
2023-04-15T20:45:30.118Z,13.18
2023-04-15T20:47:57.788Z,13.93
2023-04-15T20:50:25.401Z,13.02
2023-04-15T20:52:53.037Z,13.27
2023-04-15T20:55:20.930Z,14.20
2023-04-15T20:57:49.352Z,12.80
2023-04-15T21:00:17.070Z,14.13
2023-04-15T21:02:46.538Z,13.63
2023-04-15T21:05:14.202Z,13.82
2023-04-15T21:07:41.981Z,13.57
2023-04-15T21:10:10.564Z,12.77
2023-04-15T21:12:40.770Z,13.75
2023-04-15T21:15:11.826Z,13.23
2023-04-15T21:17:39.646Z,13.93
2023-04-15T21:20:09.902Z,13.90
2023-04-15T21:22:37.502Z,14.32
2023-04-15T21:25:05.810Z,14.07
2023-04-15T21:27:33.331Z,14.23
2023-04-15T21:30:01.008Z,13.20
2023-04-15T21:32:30.320Z,13.80
2023-04-15T21:34:58.062Z,13.90
2023-04-15T21:37:26.958Z,14.30
2023-04-15T21:39:54.523Z,13.82
2023-04-15T21:42:22.148Z,14.43
2023-04-15T21:44:49.792Z,13.95
2023-04-15T21:47:17.422Z,14.05
2023-04-15T21:49:45.442Z,14.82
2023-04-15T21:52:18.325Z,14.77
2023-04-15T21:54:47.382Z,14.05
2023-04-15T21:57:15.451Z,14.77
2023-04-15T21:59:43.045Z,14.55
2023-04-15T22:02:10.852Z,14.18
2023-04-15T22:04:38.452Z,14.43
2023-04-15T22:07:06.168Z,16.25
2023-04-15T22:09:33.697Z,14.75
2023-04-15T22:12:05.424Z,14.38
2023-04-15T22:14:32.984Z,14.10
2023-04-15T22:17:00.702Z,14.32
2023-04-15T22:19:28.352Z,14.52
2023-04-15T22:21:55.974Z,14.48
2023-04-15T22:24:38.684Z,14.65
2023-04-15T22:27:09.327Z,15.13
2023-04-15T22:29:36.989Z,14.45
2023-04-15T22:32:04.757Z,15.10
2023-04-15T22:34:32.382Z,14.27
2023-04-15T22:36:59.889Z,15.10
2023-04-15T22:39:27.717Z,15.07
2023-04-15T22:41:56.659Z,15.15
2023-04-15T22:44:25.676Z,14.48
2023-04-15T22:46:53.220Z,14.25
2023-04-15T22:49:20.770Z,14.80
2023-04-15T22:51:48.384Z,14.63
2023-04-15T22:54:15.904Z,17.30
2023-04-15T22:56:43.419Z,15.98
2023-04-15T22:59:11.115Z,14.18
2023-04-15T23:01:40.280Z,14.15
2023-04-15T23:04:23.192Z,13.85
2023-04-15T23:06:55.728Z,14.98
2023-04-15T23:09:23.398Z,14.73
2023-04-15T23:11:51.120Z,14.43
2023-04-15T23:14:18.752Z,15.10
2023-04-15T23:16:47.665Z,15.43
2023-04-15T23:19:15.730Z,14.82
2023-04-15T23:21:43.307Z,14.85
2023-04-15T23:24:10.862Z,14.85
2023-04-15T23:26:38.500Z,15.90
2023-04-15T23:29:06.150Z,15.18
2023-04-15T23:31:33.733Z,15.75
2023-04-15T23:34:03.330Z,15.65
2023-04-15T23:36:31.729Z,15.18
2023-04-15T23:38:59.396Z,15.55
2023-04-15T23:41:26.957Z,15.45
2023-04-15T23:43:54.570Z,16.33
2023-04-15T23:46:22.164Z,15.98
2023-04-15T23:48:49.963Z,16.02
2023-04-15T23:51:18.953Z,16.23
2023-04-15T23:53:46.690Z,15.55
2023-04-15T23:56:14.236Z,16.60
2023-04-15T23:58:41.732Z,15.82
